sensor_id;sensor_type;location;lat;lon;timestamp;temperature;humidity
78438;SHT31;67736;51.978;5.656;2023-05-07T00:01:34;17.6;71.0
78438;SHT31;67736;51.978;5.656;2023-05-07T00:04:04;17.6;71.1
78438;SHT31;67736;51.978;5.656;2023-05-07T00:06:36;17.6;71.1
78438;SHT31;67736;51.978;5.656;2023-05-07T00:09:06;17.6;70.8
78438;SHT31;67736;51.978;5.656;2023-05-07T00:11:36;17.6;70.6
78438;SHT31;67736;51.978;5.656;2023-05-07T00:14:06;17.6;70.3
78438;SHT31;67736;51.978;5.656;2023-05-07T00:16:35;17.6;70.3
78438;SHT31;67736;51.978;5.656;2023-05-07T00:19:05;17.6;70.3
78438;SHT31;67736;51.978;5.656;2023-05-07T00:21:34;17.6;70.2
78438;SHT31;67736;51.978;5.656;2023-05-07T00:24:04;17.6;70.2
78438;SHT31;67736;51.978;5.656;2023-05-07T00:26:34;17.6;70.3
78438;SHT31;67736;51.978;5.656;2023-05-07T00:29:05;17.6;70.3
78438;SHT31;67736;51.978;5.656;2023-05-07T00:31:35;17.6;70.1
78438;SHT31;67736;51.978;5.656;2023-05-07T00:34:04;17.6;69.9
78438;SHT31;67736;51.978;5.656;2023-05-07T00:36:34;17.6;70.0
78438;SHT31;67736;51.978;5.656;2023-05-07T00:39:03;17.6;69.7
78438;SHT31;67736;51.978;5.656;2023-05-07T00:41:34;17.7;69.4
78438;SHT31;67736;51.978;5.656;2023-05-07T00:44:04;17.7;69.5
78438;SHT31;67736;51.978;5.656;2023-05-07T00:46:34;17.7;69.7
78438;SHT31;67736;51.978;5.656;2023-05-07T00:49:03;17.7;69.4
78438;SHT31;67736;51.978;5.656;2023-05-07T00:51:33;17.7;69.4
78438;SHT31;67736;51.978;5.656;2023-05-07T00:54:03;17.7;69.6
78438;SHT31;67736;51.978;5.656;2023-05-07T00:56:34;17.7;69.5
78438;SHT31;67736;51.978;5.656;2023-05-07T00:59:04;17.6;69.2
78438;SHT31;67736;51.978;5.656;2023-05-07T01:01:35;17.6;69.2
78438;SHT31;67736;51.978;5.656;2023-05-07T01:04:05;17.6;69.5
78438;SHT31;67736;51.978;5.656;2023-05-07T01:06:35;17.6;69.7
78438;SHT31;67736;51.978;5.656;2023-05-07T01:09:05;17.6;69.8
78438;SHT31;67736;51.978;5.656;2023-05-07T01:11:36;17.6;69.5
78438;SHT31;67736;51.978;5.656;2023-05-07T01:14:07;17.6;69.5
78438;SHT31;67736;51.978;5.656;2023-05-07T01:16:38;17.6;69.7
78438;SHT31;67736;51.978;5.656;2023-05-07T01:19:09;17.6;69.8
78438;SHT31;67736;51.978;5.656;2023-05-07T01:21:45;17.6;69.6
78438;SHT31;67736;51.978;5.656;2023-05-07T01:24:16;17.6;69.5
78438;SHT31;67736;51.978;5.656;2023-05-07T01:26:45;17.6;69.4
78438;SHT31;67736;51.978;5.656;2023-05-07T01:29:16;17.6;69.2
78438;SHT31;67736;51.978;5.656;2023-05-07T01:31:48;17.5;69.4
78438;SHT31;67736;51.978;5.656;2023-05-07T01:34:20;17.5;69.6
78438;SHT31;67736;51.978;5.656;2023-05-07T01:36:52;17.5;69.5
78438;SHT31;67736;51.978;5.656;2023-05-07T01:39:24;17.5;69.7
78438;SHT31;67736;51.978;5.656;2023-05-07T01:41:55;17.5;69.6
78438;SHT31;67736;51.978;5.656;2023-05-07T01:44:25;17.4;69.8
78438;SHT31;67736;51.978;5.656;2023-05-07T01:46:56;17.4;69.7
78438;SHT31;67736;51.978;5.656;2023-05-07T01:49:27;17.4;69.7
78438;SHT31;67736;51.978;5.656;2023-05-07T01:51:58;17.4;69.6
78438;SHT31;67736;51.978;5.656;2023-05-07T01:54:27;17.4;69.5
78438;SHT31;67736;51.978;5.656;2023-05-07T01:56:58;17.4;69.6
78438;SHT31;67736;51.978;5.656;2023-05-07T01:59:27;17.4;69.4
78438;SHT31;67736;51.978;5.656;2023-05-07T02:01:57;17.4;69.2
78438;SHT31;67736;51.978;5.656;2023-05-07T02:04:26;17.4;69.4
78438;SHT31;67736;51.978;5.656;2023-05-07T02:06:56;17.4;69.4
78438;SHT31;67736;51.978;5.656;2023-05-07T02:09:25;17.4;69.4
78438;SHT31;67736;51.978;5.656;2023-05-07T02:11:55;17.4;69.4
78438;SHT31;67736;51.978;5.656;2023-05-07T02:14:24;17.4;69.2
78438;SHT31;67736;51.978;5.656;2023-05-07T02:16:54;17.4;69.4
78438;SHT31;67736;51.978;5.656;2023-05-07T02:19:24;17.4;69.1
78438;SHT31;67736;51.978;5.656;2023-05-07T02:21:55;17.4;69.1
78438;SHT31;67736;51.978;5.656;2023-05-07T02:24:25;17.4;69.3
78438;SHT31;67736;51.978;5.656;2023-05-07T02:26:54;17.4;69.5
78438;SHT31;67736;51.978;5.656;2023-05-07T02:29:24;17.4;69.6
78438;SHT31;67736;51.978;5.656;2023-05-07T02:31:53;17.4;69.6
78438;SHT31;67736;51.978;5.656;2023-05-07T02:34:23;17.5;69.8
78438;SHT31;67736;51.978;5.656;2023-05-07T02:36:52;17.5;70.1
78438;SHT31;67736;51.978;5.656;2023-05-07T02:39:23;17.5;70.1
78438;SHT31;67736;51.978;5.656;2023-05-07T02:41:54;17.5;70.0
78438;SHT31;67736;51.978;5.656;2023-05-07T02:44:23;17.5;69.9
78438;SHT31;67736;51.978;5.656;2023-05-07T02:46:53;17.5;69.7
78438;SHT31;67736;51.978;5.656;2023-05-07T02:49:22;17.5;69.6
78438;SHT31;67736;51.978;5.656;2023-05-07T02:51:52;17.5;69.7
78438;SHT31;67736;51.978;5.656;2023-05-07T02:54:22;17.6;69.7
78438;SHT31;67736;51.978;5.656;2023-05-07T02:56:52;17.6;69.7
78438;SHT31;67736;51.978;5.656;2023-05-07T02:59:21;17.6;69.4
78438;SHT31;67736;51.978;5.656;2023-05-07T03:01:51;17.6;69.2
78438;SHT31;67736;51.978;5.656;2023-05-07T03:04:21;17.7;68.9
78438;SHT31;67736;51.978;5.656;2023-05-07T03:06:50;17.7;68.7
78438;SHT31;67736;51.978;5.656;2023-05-07T03:09:20;17.7;68.5
78438;SHT31;67736;51.978;5.656;2023-05-07T03:11:50;17.7;68.4
78438;SHT31;67736;51.978;5.656;2023-05-07T03:14:19;17.6;68.4
78438;SHT31;67736;51.978;5.656;2023-05-07T03:16:49;17.6;68.3
78438;SHT31;67736;51.978;5.656;2023-05-07T03:19:18;17.6;68.4
78438;SHT31;67736;51.978;5.656;2023-05-07T03:21:48;17.5;68.4
78438;SHT31;67736;51.978;5.656;2023-05-07T03:24:17;17.5;68.6
78438;SHT31;67736;51.978;5.656;2023-05-07T03:26:47;17.4;69.0
78438;SHT31;67736;51.978;5.656;2023-05-07T03:29:16;17.4;69.0
78438;SHT31;67736;51.978;5.656;2023-05-07T03:31:47;17.4;69.0
78438;SHT31;67736;51.978;5.656;2023-05-07T03:34:17;17.4;69.1
78438;SHT31;67736;51.978;5.656;2023-05-07T03:36:49;17.3;69.2
78438;SHT31;67736;51.978;5.656;2023-05-07T03:39:19;17.3;69.1
78438;SHT31;67736;51.978;5.656;2023-05-07T03:41:48;17.3;69.3
78438;SHT31;67736;51.978;5.656;2023-05-07T03:44:18;17.3;69.1
78438;SHT31;67736;51.978;5.656;2023-05-07T03:46:47;17.3;69.0
78438;SHT31;67736;51.978;5.656;2023-05-07T03:49:19;17.3;69.0
78438;SHT31;67736;51.978;5.656;2023-05-07T03:51:48;17.3;69.3
78438;SHT31;67736;51.978;5.656;2023-05-07T03:54:18;17.3;68.6
78438;SHT31;67736;51.978;5.656;2023-05-07T03:56:49;17.3;68.9
78438;SHT31;67736;51.978;5.656;2023-05-07T03:59:19;17.3;69.4
78438;SHT31;67736;51.978;5.656;2023-05-07T04:01:48;17.3;69.3
78438;SHT31;67736;51.978;5.656;2023-05-07T04:04:18;17.3;69.0
78438;SHT31;67736;51.978;5.656;2023-05-07T04:06:48;17.3;68.7
78438;SHT31;67736;51.978;5.656;2023-05-07T04:09:19;17.3;69.1
78438;SHT31;67736;51.978;5.656;2023-05-07T04:11:48;17.3;69.1
78438;SHT31;67736;51.978;5.656;2023-05-07T04:14:17;17.3;68.9
78438;SHT31;67736;51.978;5.656;2023-05-07T04:16:47;17.3;69.0
78438;SHT31;67736;51.978;5.656;2023-05-07T04:19:17;17.3;69.1
78438;SHT31;67736;51.978;5.656;2023-05-07T04:21:48;17.3;69.1
78438;SHT31;67736;51.978;5.656;2023-05-07T04:24:18;17.3;69.3
78438;SHT31;67736;51.978;5.656;2023-05-07T04:26:47;17.2;69.6
78438;SHT31;67736;51.978;5.656;2023-05-07T04:29:18;17.2;69.7
78438;SHT31;67736;51.978;5.656;2023-05-07T04:31:48;17.2;69.9
78438;SHT31;67736;51.978;5.656;2023-05-07T04:34:18;17.2;69.8
78438;SHT31;67736;51.978;5.656;2023-05-07T04:36:48;17.2;70.5
78438;SHT31;67736;51.978;5.656;2023-05-07T04:39:17;17.2;70.8
78438;SHT31;67736;51.978;5.656;2023-05-07T04:41:47;17.2;70.5
78438;SHT31;67736;51.978;5.656;2023-05-07T04:44:17;17.2;70.4
78438;SHT31;67736;51.978;5.656;2023-05-07T04:46:46;17.2;70.3
78438;SHT31;67736;51.978;5.656;2023-05-07T04:49:16;17.3;70.3
78438;SHT31;67736;51.978;5.656;2023-05-07T04:51:45;17.3;70.1
78438;SHT31;67736;51.978;5.656;2023-05-07T04:54:15;17.3;70.3
78438;SHT31;67736;51.978;5.656;2023-05-07T04:56:44;17.3;70.3
78438;SHT31;67736;51.978;5.656;2023-05-07T04:59:14;17.3;70.2
78438;SHT31;67736;51.978;5.656;2023-05-07T05:01:43;17.3;70.1
78438;SHT31;67736;51.978;5.656;2023-05-07T05:04:13;17.3;70.3
78438;SHT31;67736;51.978;5.656;2023-05-07T05:06:43;17.3;70.3
78438;SHT31;67736;51.978;5.656;2023-05-07T05:09:12;17.2;70.3
78438;SHT31;67736;51.978;5.656;2023-05-07T05:11:43;17.2;70.5
78438;SHT31;67736;51.978;5.656;2023-05-07T05:14:13;17.2;70.7
78438;SHT31;67736;51.978;5.656;2023-05-07T05:16:42;17.2;70.7
78438;SHT31;67736;51.978;5.656;2023-05-07T05:19:14;17.2;70.7
78438;SHT31;67736;51.978;5.656;2023-05-07T05:21:43;17.2;71.0
78438;SHT31;67736;51.978;5.656;2023-05-07T05:24:13;17.2;71.0
78438;SHT31;67736;51.978;5.656;2023-05-07T05:26:43;17.2;71.0
78438;SHT31;67736;51.978;5.656;2023-05-07T05:29:12;17.2;71.1
78438;SHT31;67736;51.978;5.656;2023-05-07T05:31:42;17.2;71.2
78438;SHT31;67736;51.978;5.656;2023-05-07T05:34:11;17.2;71.6
78438;SHT31;67736;51.978;5.656;2023-05-07T05:36:41;17.2;71.4
78438;SHT31;67736;51.978;5.656;2023-05-07T05:39:10;17.2;71.5
78438;SHT31;67736;51.978;5.656;2023-05-07T05:41:40;17.3;71.3
78438;SHT31;67736;51.978;5.656;2023-05-07T05:44:09;17.3;71.3
78438;SHT31;67736;51.978;5.656;2023-05-07T05:46:39;17.3;71.3
78438;SHT31;67736;51.978;5.656;2023-05-07T05:49:08;17.3;71.0
78438;SHT31;67736;51.978;5.656;2023-05-07T05:51:38;17.3;70.9
78438;SHT31;67736;51.978;5.656;2023-05-07T05:54:07;17.3;71.1
78438;SHT31;67736;51.978;5.656;2023-05-07T05:56:37;17.4;70.8
78438;SHT31;67736;51.978;5.656;2023-05-07T05:59:09;17.4;70.8
78438;SHT31;67736;51.978;5.656;2023-05-07T06:01:39;17.4;70.7
78438;SHT31;67736;51.978;5.656;2023-05-07T06:04:09;17.4;70.8
78438;SHT31;67736;51.978;5.656;2023-05-07T06:06:38;17.3;71.0
78438;SHT31;67736;51.978;5.656;2023-05-07T06:09:08;17.3;71.1
78438;SHT31;67736;51.978;5.656;2023-05-07T06:11:37;17.3;71.3
78438;SHT31;67736;51.978;5.656;2023-05-07T06:14:08;17.3;71.5
78438;SHT31;67736;51.978;5.656;2023-05-07T06:16:39;17.3;71.6
78438;SHT31;67736;51.978;5.656;2023-05-07T06:19:09;17.3;71.6
78438;SHT31;67736;51.978;5.656;2023-05-07T06:21:38;17.3;71.7
78438;SHT31;67736;51.978;5.656;2023-05-07T06:24:10;17.3;72.2
78438;SHT31;67736;51.978;5.656;2023-05-07T06:26:40;17.3;72.2
78438;SHT31;67736;51.978;5.656;2023-05-07T06:29:09;17.3;72.2
78438;SHT31;67736;51.978;5.656;2023-05-07T06:31:39;17.3;72.1
78438;SHT31;67736;51.978;5.656;2023-05-07T06:34:09;17.4;72.0
78438;SHT31;67736;51.978;5.656;2023-05-07T06:36:41;17.4;71.9
78438;SHT31;67736;51.978;5.656;2023-05-07T06:39:11;17.4;71.8
78438;SHT31;67736;51.978;5.656;2023-05-07T06:41:42;17.5;71.8
78438;SHT31;67736;51.978;5.656;2023-05-07T06:44:12;17.5;72.1
78438;SHT31;67736;51.978;5.656;2023-05-07T06:46:43;17.5;71.5
78438;SHT31;67736;51.978;5.656;2023-05-07T06:49:12;17.6;71.6
78438;SHT31;67736;51.978;5.656;2023-05-07T06:51:44;17.6;71.7
78438;SHT31;67736;51.978;5.656;2023-05-07T06:54:14;17.7;71.0
78438;SHT31;67736;51.978;5.656;2023-05-07T06:56:45;17.7;71.5
78438;SHT31;67736;51.978;5.656;2023-05-07T06:59:17;17.7;71.5
78438;SHT31;67736;51.978;5.656;2023-05-07T07:01:47;17.8;71.3
78438;SHT31;67736;51.978;5.656;2023-05-07T07:04:16;17.8;71.3
78438;SHT31;67736;51.978;5.656;2023-05-07T07:06:46;17.9;71.1
78438;SHT31;67736;51.978;5.656;2023-05-07T07:09:16;17.9;71.0
78438;SHT31;67736;51.978;5.656;2023-05-07T07:11:45;18.0;70.5
78438;SHT31;67736;51.978;5.656;2023-05-07T07:14:15;18.0;70.3
78438;SHT31;67736;51.978;5.656;2023-05-07T07:16:44;18.1;70.2
78438;SHT31;67736;51.978;5.656;2023-05-07T07:19:15;18.1;69.8
78438;SHT31;67736;51.978;5.656;2023-05-07T07:21:44;18.2;70.3
78438;SHT31;67736;51.978;5.656;2023-05-07T07:24:15;18.2;70.2
78438;SHT31;67736;51.978;5.656;2023-05-07T07:26:48;18.3;70.0
78438;SHT31;67736;51.978;5.656;2023-05-07T07:29:17;18.3;70.0
78438;SHT31;67736;51.978;5.656;2023-05-07T07:31:47;18.4;69.7
78438;SHT31;67736;51.978;5.656;2023-05-07T07:34:17;18.4;69.5
78438;SHT31;67736;51.978;5.656;2023-05-07T07:36:47;18.4;69.5
78438;SHT31;67736;51.978;5.656;2023-05-07T07:39:16;18.4;69.7
78438;SHT31;67736;51.978;5.656;2023-05-07T07:41:46;18.4;69.9
78438;SHT31;67736;51.978;5.656;2023-05-07T07:44:15;18.4;69.9
78438;SHT31;67736;51.978;5.656;2023-05-07T07:46:45;18.4;69.7
78438;SHT31;67736;51.978;5.656;2023-05-07T07:49:15;18.4;70.1
78438;SHT31;67736;51.978;5.656;2023-05-07T07:51:46;18.4;70.4
78438;SHT31;67736;51.978;5.656;2023-05-07T07:54:15;18.5;70.4
78438;SHT31;67736;51.978;5.656;2023-05-07T07:56:45;18.5;69.5
78438;SHT31;67736;51.978;5.656;2023-05-07T07:59:14;18.5;69.7
78438;SHT31;67736;51.978;5.656;2023-05-07T08:01:46;18.5;69.6
78438;SHT31;67736;51.978;5.656;2023-05-07T08:04:17;18.5;69.2
78438;SHT31;67736;51.978;5.656;2023-05-07T08:06:47;18.5;69.2
78438;SHT31;67736;51.978;5.656;2023-05-07T08:09:16;18.5;69.9
78438;SHT31;67736;51.978;5.656;2023-05-07T08:11:46;18.5;69.4
78438;SHT31;67736;51.978;5.656;2023-05-07T08:14:16;18.5;69.8
78438;SHT31;67736;51.978;5.656;2023-05-07T08:16:45;18.6;68.5
78438;SHT31;67736;51.978;5.656;2023-05-07T08:19:15;18.6;68.3
78438;SHT31;67736;51.978;5.656;2023-05-07T08:21:46;18.6;68.3
78438;SHT31;67736;51.978;5.656;2023-05-07T08:24:17;18.6;67.9
78438;SHT31;67736;51.978;5.656;2023-05-07T08:26:47;18.6;68.0
78438;SHT31;67736;51.978;5.656;2023-05-07T08:29:19;18.7;68.2
78438;SHT31;67736;51.978;5.656;2023-05-07T08:31:49;18.7;68.9
78438;SHT31;67736;51.978;5.656;2023-05-07T08:34:18;18.8;68.6
78438;SHT31;67736;51.978;5.656;2023-05-07T08:36:48;18.8;68.8
78438;SHT31;67736;51.978;5.656;2023-05-07T08:39:18;18.9;68.1
78438;SHT31;67736;51.978;5.656;2023-05-07T08:41:48;19.0;68.9
78438;SHT31;67736;51.978;5.656;2023-05-07T08:44:23;19.0;68.6
78438;SHT31;67736;51.978;5.656;2023-05-07T08:46:56;19.1;69.4
78438;SHT31;67736;51.978;5.656;2023-05-07T08:49:27;19.2;68.3
78438;SHT31;67736;51.978;5.656;2023-05-07T08:51:58;19.4;68.6
78438;SHT31;67736;51.978;5.656;2023-05-07T08:54:29;19.5;67.6
78438;SHT31;67736;51.978;5.656;2023-05-07T08:57:00;19.6;66.1
78438;SHT31;67736;51.978;5.656;2023-05-07T08:59:31;19.8;65.3
78438;SHT31;67736;51.978;5.656;2023-05-07T09:02:01;19.9;65.0
78438;SHT31;67736;51.978;5.656;2023-05-07T09:04:31;20.0;64.3
78438;SHT31;67736;51.978;5.656;2023-05-07T09:07:01;20.1;64.9
78438;SHT31;67736;51.978;5.656;2023-05-07T09:09:34;20.3;63.6
78438;SHT31;67736;51.978;5.656;2023-05-07T09:12:03;20.4;62.5
78438;SHT31;67736;51.978;5.656;2023-05-07T09:14:33;20.4;62.1
78438;SHT31;67736;51.978;5.656;2023-05-07T09:17:02;20.5;61.0
78438;SHT31;67736;51.978;5.656;2023-05-07T09:19:32;20.6;60.8
78438;SHT31;67736;51.978;5.656;2023-05-07T09:22:03;20.7;60.7
78438;SHT31;67736;51.978;5.656;2023-05-07T09:24:34;20.8;61.7
78438;SHT31;67736;51.978;5.656;2023-05-07T09:27:06;21.0;61.5
78438;SHT31;67736;51.978;5.656;2023-05-07T09:29:38;21.2;60.6
78438;SHT31;67736;51.978;5.656;2023-05-07T09:32:08;21.4;59.1
78438;SHT31;67736;51.978;5.656;2023-05-07T09:34:38;21.6;58.5
78438;SHT31;67736;51.978;5.656;2023-05-07T09:37:07;21.8;57.4
78438;SHT31;67736;51.978;5.656;2023-05-07T09:39:41;21.9;57.1
78438;SHT31;67736;51.978;5.656;2023-05-07T09:42:11;22.0;56.3
78438;SHT31;67736;51.978;5.656;2023-05-07T09:44:43;22.1;55.8
78438;SHT31;67736;51.978;5.656;2023-05-07T09:47:20;22.2;55.9
78438;SHT31;67736;51.978;5.656;2023-05-07T09:49:56;22.3;55.3
78438;SHT31;67736;51.978;5.656;2023-05-07T09:52:27;22.3;55.1
78438;SHT31;67736;51.978;5.656;2023-05-07T09:55:02;22.4;54.8
78438;SHT31;67736;51.978;5.656;2023-05-07T09:57:34;22.4;54.3
78438;SHT31;67736;51.978;5.656;2023-05-07T10:00:05;22.5;54.5
78438;SHT31;67736;51.978;5.656;2023-05-07T10:02:36;22.5;54.4
78438;SHT31;67736;51.978;5.656;2023-05-07T10:05:12;22.6;54.8
78438;SHT31;67736;51.978;5.656;2023-05-07T10:07:44;22.7;53.9
78438;SHT31;67736;51.978;5.656;2023-05-07T10:10:15;22.7;54.7
78438;SHT31;67736;51.978;5.656;2023-05-07T10:12:45;22.8;53.8
78438;SHT31;67736;51.978;5.656;2023-05-07T10:15:14;22.8;53.2
78438;SHT31;67736;51.978;5.656;2023-05-07T10:17:44;22.9;54.2
78438;SHT31;67736;51.978;5.656;2023-05-07T10:20:14;22.9;53.1
78438;SHT31;67736;51.978;5.656;2023-05-07T10:22:47;22.9;52.4
78438;SHT31;67736;51.978;5.656;2023-05-07T10:25:21;23.0;53.0
78438;SHT31;67736;51.978;5.656;2023-05-07T10:27:54;23.0;52.2
78438;SHT31;67736;51.978;5.656;2023-05-07T10:30:34;23.0;52.4
78438;SHT31;67736;51.978;5.656;2023-05-07T10:33:10;22.9;51.8
78438;SHT31;67736;51.978;5.656;2023-05-07T10:35:44;22.9;52.2
78438;SHT31;67736;51.978;5.656;2023-05-07T10:38:15;22.9;51.8
78438;SHT31;67736;51.978;5.656;2023-05-07T10:40:45;22.9;52.2
78438;SHT31;67736;51.978;5.656;2023-05-07T10:43:14;22.8;52.2
78438;SHT31;67736;51.978;5.656;2023-05-07T10:46:10;22.8;52.6
78438;SHT31;67736;51.978;5.656;2023-05-07T10:49:08;22.8;52.4
78438;SHT31;67736;51.978;5.656;2023-05-07T10:51:38;22.8;52.0
78438;SHT31;67736;51.978;5.656;2023-05-07T10:54:41;22.7;52.1
78438;SHT31;67736;51.978;5.656;2023-05-07T10:57:35;22.7;52.4
78438;SHT31;67736;51.978;5.656;2023-05-07T11:03:07;22.7;52.8
78438;SHT31;67736;51.978;5.656;2023-05-07T11:05:38;22.7;52.7
78438;SHT31;67736;51.978;5.656;2023-05-07T11:08:08;22.8;53.2
78438;SHT31;67736;51.978;5.656;2023-05-07T11:10:52;22.8;52.6
78438;SHT31;67736;51.978;5.656;2023-05-07T11:13:43;22.8;53.2
78438;SHT31;67736;51.978;5.656;2023-05-07T11:16:20;22.9;53.0
78438;SHT31;67736;51.978;5.656;2023-05-07T11:18:52;22.9;53.8
78438;SHT31;67736;51.978;5.656;2023-05-07T11:21:36;23.0;53.8
78438;SHT31;67736;51.978;5.656;2023-05-07T11:24:07;23.1;52.9
78438;SHT31;67736;51.978;5.656;2023-05-07T11:26:48;23.2;54.8
78438;SHT31;67736;51.978;5.656;2023-05-07T11:29:20;23.4;53.3
78438;SHT31;67736;51.978;5.656;2023-05-07T11:31:51;23.5;52.2
78438;SHT31;67736;51.978;5.656;2023-05-07T11:34:25;23.5;51.5
78438;SHT31;67736;51.978;5.656;2023-05-07T11:36:55;23.6;51.5
78438;SHT31;67736;51.978;5.656;2023-05-07T11:39:27;23.7;51.2
78438;SHT31;67736;51.978;5.656;2023-05-07T11:41:57;23.7;50.4
78438;SHT31;67736;51.978;5.656;2023-05-07T11:44:43;23.8;49.9
78438;SHT31;67736;51.978;5.656;2023-05-07T11:47:17;23.8;47.3
78438;SHT31;67736;51.978;5.656;2023-05-07T11:49:48;23.8;47.1
78438;SHT31;67736;51.978;5.656;2023-05-07T11:52:20;23.8;49.0
78438;SHT31;67736;51.978;5.656;2023-05-07T11:54:51;23.8;49.6
78438;SHT31;67736;51.978;5.656;2023-05-07T11:57:22;23.8;50.3
78438;SHT31;67736;51.978;5.656;2023-05-07T11:59:55;23.8;51.6
78438;SHT31;67736;51.978;5.656;2023-05-07T12:02:25;23.8;51.4
78438;SHT31;67736;51.978;5.656;2023-05-07T12:04:55;23.8;52.2
78438;SHT31;67736;51.978;5.656;2023-05-07T12:07:25;23.8;52.7
78438;SHT31;67736;51.978;5.656;2023-05-07T12:09:55;23.8;51.8
78438;SHT31;67736;51.978;5.656;2023-05-07T12:12:24;23.9;48.4
78438;SHT31;67736;51.978;5.656;2023-05-07T12:14:54;23.9;48.7
78438;SHT31;67736;51.978;5.656;2023-05-07T12:17:24;23.9;49.9
78438;SHT31;67736;51.978;5.656;2023-05-07T12:19:53;24.0;49.8
78438;SHT31;67736;51.978;5.656;2023-05-07T12:22:23;24.0;50.3
78438;SHT31;67736;51.978;5.656;2023-05-07T12:24:58;24.0;50.7
78438;SHT31;67736;51.978;5.656;2023-05-07T12:27:29;24.0;51.2
78438;SHT31;67736;51.978;5.656;2023-05-07T12:29:59;24.1;49.3
78438;SHT31;67736;51.978;5.656;2023-05-07T12:32:29;24.1;49.0
78438;SHT31;67736;51.978;5.656;2023-05-07T12:35:08;24.1;48.7
78438;SHT31;67736;51.978;5.656;2023-05-07T12:37:37;24.2;49.7
78438;SHT31;67736;51.978;5.656;2023-05-07T12:40:09;24.3;49.2
78438;SHT31;67736;51.978;5.656;2023-05-07T12:42:40;24.4;50.1
78438;SHT31;67736;51.978;5.656;2023-05-07T12:45:11;24.4;49.2
78438;SHT31;67736;51.978;5.656;2023-05-07T12:47:43;24.5;49.0
78438;SHT31;67736;51.978;5.656;2023-05-07T12:50:14;24.6;49.3
78438;SHT31;67736;51.978;5.656;2023-05-07T12:52:45;24.7;49.2
78438;SHT31;67736;51.978;5.656;2023-05-07T12:55:17;24.7;48.5
78438;SHT31;67736;51.978;5.656;2023-05-07T12:57:48;24.7;49.3
78438;SHT31;67736;51.978;5.656;2023-05-07T13:00:35;24.8;48.4
78438;SHT31;67736;51.978;5.656;2023-05-07T13:03:05;24.8;47.8
78438;SHT31;67736;51.978;5.656;2023-05-07T13:05:35;24.8;46.7
78438;SHT31;67736;51.978;5.656;2023-05-07T13:08:04;24.8;47.1
78438;SHT31;67736;51.978;5.656;2023-05-07T13:10:37;24.8;46.3
78438;SHT31;67736;51.978;5.656;2023-05-07T13:13:06;24.8;46.5
78438;SHT31;67736;51.978;5.656;2023-05-07T13:15:35;24.8;47.1
78438;SHT31;67736;51.978;5.656;2023-05-07T13:18:06;24.7;47.4
78438;SHT31;67736;51.978;5.656;2023-05-07T13:20:37;24.7;46.1
78438;SHT31;67736;51.978;5.656;2023-05-07T13:23:08;24.6;46.2
78438;SHT31;67736;51.978;5.656;2023-05-07T13:25:37;24.6;47.0
78438;SHT31;67736;51.978;5.656;2023-05-07T13:28:07;24.6;47.0
78438;SHT31;67736;51.978;5.656;2023-05-07T13:30:36;24.6;47.6
78438;SHT31;67736;51.978;5.656;2023-05-07T13:33:08;24.5;48.3
78438;SHT31;67736;51.978;5.656;2023-05-07T13:35:40;24.5;47.7
78438;SHT31;67736;51.978;5.656;2023-05-07T13:38:10;24.5;48.5
78438;SHT31;67736;51.978;5.656;2023-05-07T13:40:39;24.5;47.0
78438;SHT31;67736;51.978;5.656;2023-05-07T13:43:09;24.5;47.3
78438;SHT31;67736;51.978;5.656;2023-05-07T13:45:39;24.6;47.0
78438;SHT31;67736;51.978;5.656;2023-05-07T13:48:10;24.6;45.7
78438;SHT31;67736;51.978;5.656;2023-05-07T13:50:40;24.7;45.9
78438;SHT31;67736;51.978;5.656;2023-05-07T13:53:10;24.8;46.2
78438;SHT31;67736;51.978;5.656;2023-05-07T13:55:40;24.9;46.2
78438;SHT31;67736;51.978;5.656;2023-05-07T13:58:09;24.9;44.2
78438;SHT31;67736;51.978;5.656;2023-05-07T14:00:39;25.0;45.4
78438;SHT31;67736;51.978;5.656;2023-05-07T14:03:11;25.1;46.2
78438;SHT31;67736;51.978;5.656;2023-05-07T14:05:41;25.1;45.7
78438;SHT31;67736;51.978;5.656;2023-05-07T14:08:11;25.2;46.0
78438;SHT31;67736;51.978;5.656;2023-05-07T14:10:41;25.2;46.4
78438;SHT31;67736;51.978;5.656;2023-05-07T14:13:11;25.2;46.5
78438;SHT31;67736;51.978;5.656;2023-05-07T14:15:40;25.2;46.3
78438;SHT31;67736;51.978;5.656;2023-05-07T14:18:14;25.2;46.9
78438;SHT31;67736;51.978;5.656;2023-05-07T14:20:43;25.2;47.7
78438;SHT31;67736;51.978;5.656;2023-05-07T14:23:15;25.2;47.4
78438;SHT31;67736;51.978;5.656;2023-05-07T14:25:45;25.2;47.7
78438;SHT31;67736;51.978;5.656;2023-05-07T14:28:15;25.2;47.2
78438;SHT31;67736;51.978;5.656;2023-05-07T14:30:44;25.2;46.6
78438;SHT31;67736;51.978;5.656;2023-05-07T14:33:16;25.2;47.3
78438;SHT31;67736;51.978;5.656;2023-05-07T14:35:46;25.1;47.6
78438;SHT31;67736;51.978;5.656;2023-05-07T14:38:17;25.0;47.1
78438;SHT31;67736;51.978;5.656;2023-05-07T14:40:47;25.0;47.6
78438;SHT31;67736;51.978;5.656;2023-05-07T14:43:16;24.9;47.8
78438;SHT31;67736;51.978;5.656;2023-05-07T14:45:46;24.9;48.0
78438;SHT31;67736;51.978;5.656;2023-05-07T14:48:15;24.8;48.5
78438;SHT31;67736;51.978;5.656;2023-05-07T14:50:46;24.8;48.2
78438;SHT31;67736;51.978;5.656;2023-05-07T14:53:16;24.8;48.3
78438;SHT31;67736;51.978;5.656;2023-05-07T14:55:47;24.8;48.1
78438;SHT31;67736;51.978;5.656;2023-05-07T14:58:17;24.8;47.8
78438;SHT31;67736;51.978;5.656;2023-05-07T15:00:47;24.8;48.0
78438;SHT31;67736;51.978;5.656;2023-05-07T15:03:16;24.8;48.3
78438;SHT31;67736;51.978;5.656;2023-05-07T15:05:46;24.7;47.8
78438;SHT31;67736;51.978;5.656;2023-05-07T15:08:18;24.7;47.9
78438;SHT31;67736;51.978;5.656;2023-05-07T15:10:48;24.7;47.7
78438;SHT31;67736;51.978;5.656;2023-05-07T15:13:17;24.7;48.3
78438;SHT31;67736;51.978;5.656;2023-05-07T15:15:47;24.7;48.2
78438;SHT31;67736;51.978;5.656;2023-05-07T15:18:17;24.7;48.8
78438;SHT31;67736;51.978;5.656;2023-05-07T15:20:47;24.7;47.9
78438;SHT31;67736;51.978;5.656;2023-05-07T15:23:16;24.6;47.8
78438;SHT31;67736;51.978;5.656;2023-05-07T15:25:48;24.5;47.7
78438;SHT31;67736;51.978;5.656;2023-05-07T15:28:17;24.5;46.9
78438;SHT31;67736;51.978;5.656;2023-05-07T15:30:47;24.4;46.7
78438;SHT31;67736;51.978;5.656;2023-05-07T15:33:17;24.2;46.0
78438;SHT31;67736;51.978;5.656;2023-05-07T15:35:46;24.1;46.2
78438;SHT31;67736;51.978;5.656;2023-05-07T15:38:16;24.0;46.4
78438;SHT31;67736;51.978;5.656;2023-05-07T15:40:45;23.8;47.1
78438;SHT31;67736;51.978;5.656;2023-05-07T15:43:17;23.7;47.5
78438;SHT31;67736;51.978;5.656;2023-05-07T15:45:46;23.5;48.6
78438;SHT31;67736;51.978;5.656;2023-05-07T15:48:18;23.3;50.2
78438;SHT31;67736;51.978;5.656;2023-05-07T15:50:50;23.1;52.2
78438;SHT31;67736;51.978;5.656;2023-05-07T15:53:19;22.9;53.5
78438;SHT31;67736;51.978;5.656;2023-05-07T15:55:49;22.8;54.7
78438;SHT31;67736;51.978;5.656;2023-05-07T15:58:18;22.6;56.1
78438;SHT31;67736;51.978;5.656;2023-05-07T16:00:50;22.5;55.9
78438;SHT31;67736;51.978;5.656;2023-05-07T16:03:19;22.3;58.0
78438;SHT31;67736;51.978;5.656;2023-05-07T16:05:50;22.2;57.8
78438;SHT31;67736;51.978;5.656;2023-05-07T16:08:20;22.1;57.0
78438;SHT31;67736;51.978;5.656;2023-05-07T16:10:50;21.9;57.6
78438;SHT31;67736;51.978;5.656;2023-05-07T16:13:19;21.8;57.3
78438;SHT31;67736;51.978;5.656;2023-05-07T16:15:54;21.6;59.6
78438;SHT31;67736;51.978;5.656;2023-05-07T16:18:24;21.5;58.7
78438;SHT31;67736;51.978;5.656;2023-05-07T16:20:54;21.3;58.6
78438;SHT31;67736;51.978;5.656;2023-05-07T16:23:24;21.2;60.1
78438;SHT31;67736;51.978;5.656;2023-05-07T16:25:54;21.1;60.3
78438;SHT31;67736;51.978;5.656;2023-05-07T16:28:23;21.0;60.1